sensor_id;sensor_type;location;lat;lon;timestamp;P1;durP1;ratioP1;P2;durP2;ratioP2
55641;SDS011;41509;53.108;6.100;2022-12-18T00:01:01;40.20;;;15.27;;
55641;SDS011;41509;53.108;6.100;2022-12-18T00:03:38;54.38;;;15.82;;
55641;SDS011;41509;53.108;6.100;2022-12-18T00:06:04;43.87;;;15.33;;
55641;SDS011;41509;53.108;6.100;2022-12-18T00:08:29;45.90;;;16.57;;
55641;SDS011;41509;53.108;6.100;2022-12-18T00:10:55;48.00;;;17.17;;
55641;SDS011;41509;53.108;6.100;2022-12-18T00:13:28;47.05;;;16.30;;
55641;SDS011;41509;53.108;6.100;2022-12-18T00:15:53;50.00;;;15.67;;
55641;SDS011;41509;53.108;6.100;2022-12-18T00:18:19;50.67;;;15.73;;
55641;SDS011;41509;53.108;6.100;2022-12-18T00:20:44;47.87;;;17.23;;
55641;SDS011;41509;53.108;6.100;2022-12-18T00:23:10;45.40;;;15.07;;
55641;SDS011;41509;53.108;6.100;2022-12-18T00:25:36;52.77;;;18.93;;
55641;SDS011;41509;53.108;6.100;2022-12-18T00:28:02;41.05;;;17.02;;
55641;SDS011;41509;53.108;6.100;2022-12-18T00:30:28;44.47;;;15.75;;
55641;SDS011;41509;53.108;6.100;2022-12-18T00:32:54;46.13;;;15.63;;
55641;SDS011;41509;53.108;6.100;2022-12-18T00:35:20;47.13;;;17.67;;
55641;SDS011;41509;53.108;6.100;2022-12-18T00:37:46;49.53;;;16.77;;
55641;SDS011;41509;53.108;6.100;2022-12-18T00:40:12;51.30;;;18.13;;
55641;SDS011;41509;53.108;6.100;2022-12-18T00:42:37;45.90;;;16.40;;
55641;SDS011;41509;53.108;6.100;2022-12-18T00:45:25;39.65;;;13.57;;
55641;SDS011;41509;53.108;6.100;2022-12-18T00:47:53;50.22;;;17.48;;
55641;SDS011;41509;53.108;6.100;2022-12-18T00:50:19;45.65;;;15.90;;
55641;SDS011;41509;53.108;6.100;2022-12-18T00:52:44;41.33;;;15.03;;
55641;SDS011;41509;53.108;6.100;2022-12-18T00:55:10;45.80;;;16.30;;
55641;SDS011;41509;53.108;6.100;2022-12-18T00:57:36;43.25;;;15.43;;
55641;SDS011;41509;53.108;6.100;2022-12-18T01:00:03;54.65;;;17.60;;
55641;SDS011;41509;53.108;6.100;2022-12-18T01:02:30;45.85;;;15.95;;
55641;SDS011;41509;53.108;6.100;2022-12-18T01:04:56;40.50;;;15.00;;
55641;SDS011;41509;53.108;6.100;2022-12-18T01:07:21;43.37;;;15.90;;
55641;SDS011;41509;53.108;6.100;2022-12-18T01:09:50;51.75;;;15.55;;
55641;SDS011;41509;53.108;6.100;2022-12-18T01:12:16;56.73;;;16.87;;
55641;SDS011;41509;53.108;6.100;2022-12-18T01:14:42;52.80;;;16.33;;
55641;SDS011;41509;53.108;6.100;2022-12-18T01:17:07;44.50;;;14.50;;
55641;SDS011;41509;53.108;6.100;2022-12-18T01:19:33;38.60;;;14.90;;
55641;SDS011;41509;53.108;6.100;2022-12-18T01:21:59;44.83;;;15.33;;
55641;SDS011;41509;53.108;6.100;2022-12-18T01:24:24;46.77;;;16.87;;
55641;SDS011;41509;53.108;6.100;2022-12-18T01:26:50;50.50;;;15.00;;
55641;SDS011;41509;53.108;6.100;2022-12-18T01:29:19;40.50;;;13.77;;
55641;SDS011;41509;53.108;6.100;2022-12-18T01:31:44;48.60;;;15.20;;
55641;SDS011;41509;53.108;6.100;2022-12-18T01:34:10;40.20;;;13.63;;
55641;SDS011;41509;53.108;6.100;2022-12-18T01:36:36;50.13;;;16.33;;
55641;SDS011;41509;53.108;6.100;2022-12-18T01:39:05;37.17;;;11.90;;
55641;SDS011;41509;53.108;6.100;2022-12-18T01:41:35;50.03;;;14.60;;
55641;SDS011;41509;53.108;6.100;2022-12-18T01:47:32;45.33;;;14.90;;
55641;SDS011;41509;53.108;6.100;2022-12-18T01:50:11;46.42;;;14.88;;
55641;SDS011;41509;53.108;6.100;2022-12-18T01:53:04;33.97;;;13.73;;
55641;SDS011;41509;53.108;6.100;2022-12-18T01:55:39;46.00;;;14.07;;
55641;SDS011;41509;53.108;6.100;2022-12-18T01:58:09;38.83;;;14.73;;
55641;SDS011;41509;53.108;6.100;2022-12-18T02:00:35;40.20;;;13.13;;
55641;SDS011;41509;53.108;6.100;2022-12-18T02:03:01;43.87;;;14.97;;
55641;SDS011;41509;53.108;6.100;2022-12-18T02:08:23;41.33;;;13.73;;
55641;SDS011;41509;53.108;6.100;2022-12-18T02:13:30;44.10;;;13.23;;
55641;SDS011;41509;53.108;6.100;2022-12-18T02:16:18;40.33;;;12.02;;
55641;SDS011;41509;53.108;6.100;2022-12-18T02:18:57;36.65;;;13.73;;
55641;SDS011;41509;53.108;6.100;2022-12-18T02:26:39;41.63;;;13.88;;
55641;SDS011;41509;53.108;6.100;2022-12-18T02:29:16;33.63;;;13.32;;
55641;SDS011;41509;53.108;6.100;2022-12-18T02:31:51;39.30;;;13.30;;
55641;SDS011;41509;53.108;6.100;2022-12-18T02:34:19;39.47;;;14.10;;
55641;SDS011;41509;53.108;6.100;2022-12-18T02:36:48;48.05;;;14.95;;
55641;SDS011;41509;53.108;6.100;2022-12-18T02:39:19;43.15;;;16.00;;
55641;SDS011;41509;53.108;6.100;2022-12-18T02:41:47;42.20;;;14.48;;
55641;SDS011;41509;53.108;6.100;2022-12-18T02:44:13;47.20;;;15.23;;
55641;SDS011;41509;53.108;6.100;2022-12-18T02:46:40;38.40;;;15.15;;
55641;SDS011;41509;53.108;6.100;2022-12-18T03:00:39;43.13;;;14.32;;
55641;SDS011;41509;53.108;6.100;2022-12-18T03:03:14;47.75;;;14.25;;
55641;SDS011;41509;53.108;6.100;2022-12-18T03:05:56;42.15;;;15.13;;
55641;SDS011;41509;53.108;6.100;2022-12-18T03:08:43;45.08;;;14.35;;
55641;SDS011;41509;53.108;6.100;2022-12-18T03:11:13;44.60;;;14.43;;
55641;SDS011;41509;53.108;6.100;2022-12-18T03:13:50;41.17;;;14.82;;
55641;SDS011;41509;53.108;6.100;2022-12-18T03:16:22;40.50;;;13.68;;
55641;SDS011;41509;53.108;6.100;2022-12-18T03:18:56;42.83;;;15.07;;
55641;SDS011;41509;53.108;6.100;2022-12-18T03:21:42;43.97;;;15.45;;
55641;SDS011;41509;53.108;6.100;2022-12-18T03:24:10;40.15;;;12.90;;
55641;SDS011;41509;53.108;6.100;2022-12-18T03:26:37;43.95;;;14.77;;
55641;SDS011;41509;53.108;6.100;2022-12-18T03:29:10;46.42;;;14.57;;
55641;SDS011;41509;53.108;6.100;2022-12-18T03:31:42;47.13;;;14.52;;
55641;SDS011;41509;53.108;6.100;2022-12-18T03:34:15;40.38;;;13.90;;
55641;SDS011;41509;53.108;6.100;2022-12-18T03:36:46;43.22;;;15.32;;
55641;SDS011;41509;53.108;6.100;2022-12-18T03:39:13;51.63;;;16.63;;
55641;SDS011;41509;53.108;6.100;2022-12-18T03:47:39;48.38;;;14.18;;
55641;SDS011;41509;53.108;6.100;2022-12-18T03:52:09;40.47;;;14.10;;
55641;SDS011;41509;53.108;6.100;2022-12-18T03:54:38;42.08;;;15.90;;
55641;SDS011;41509;53.108;6.100;2022-12-18T03:57:09;44.22;;;14.88;;
55641;SDS011;41509;53.108;6.100;2022-12-18T03:59:44;38.00;;;14.77;;
55641;SDS011;41509;53.108;6.100;2022-12-18T04:02:12;47.58;;;16.02;;
55641;SDS011;41509;53.108;6.100;2022-12-18T04:04:40;45.70;;;14.93;;
55641;SDS011;41509;53.108;6.100;2022-12-18T04:07:07;43.08;;;15.60;;
55641;SDS011;41509;53.108;6.100;2022-12-18T04:09:34;50.70;;;16.70;;
55641;SDS011;41509;53.108;6.100;2022-12-18T04:12:04;49.60;;;15.50;;
55641;SDS011;41509;53.108;6.100;2022-12-18T04:14:31;46.85;;;14.98;;
55641;SDS011;41509;53.108;6.100;2022-12-18T04:17:00;43.10;;;14.40;;
55641;SDS011;41509;53.108;6.100;2022-12-18T04:19:30;41.35;;;15.10;;
55641;SDS011;41509;53.108;6.100;2022-12-18T04:21:55;42.27;;;14.17;;
55641;SDS011;41509;53.108;6.100;2022-12-18T04:24:21;44.00;;;14.93;;
55641;SDS011;41509;53.108;6.100;2022-12-18T04:26:49;36.42;;;13.23;;
55641;SDS011;41509;53.108;6.100;2022-12-18T04:29:15;45.03;;;14.07;;
55641;SDS011;41509;53.108;6.100;2022-12-18T04:31:41;48.08;;;16.20;;
55641;SDS011;41509;53.108;6.100;2022-12-18T04:34:07;43.40;;;14.67;;
55641;SDS011;41509;53.108;6.100;2022-12-18T04:36:32;41.63;;;13.43;;
55641;SDS011;41509;53.108;6.100;2022-12-18T04:38:58;50.23;;;16.63;;
55641;SDS011;41509;53.108;6.100;2022-12-18T04:41:24;47.50;;;16.27;;
55641;SDS011;41509;53.108;6.100;2022-12-18T04:43:49;50.07;;;15.37;;
55641;SDS011;41509;53.108;6.100;2022-12-18T04:46:15;55.50;;;16.20;;
55641;SDS011;41509;53.108;6.100;2022-12-18T04:48:41;38.95;;;15.05;;
55641;SDS011;41509;53.108;6.100;2022-12-18T04:51:07;51.97;;;16.60;;
55641;SDS011;41509;53.108;6.100;2022-12-18T04:53:33;45.27;;;14.07;;
55641;SDS011;41509;53.108;6.100;2022-12-18T04:56:08;39.13;;;13.25;;
55641;SDS011;41509;53.108;6.100;2022-12-18T05:01:05;37.22;;;12.80;;
55641;SDS011;41509;53.108;6.100;2022-12-18T05:03:32;38.40;;;14.15;;
55641;SDS011;41509;53.108;6.100;2022-12-18T05:05:59;40.17;;;13.85;;
55641;SDS011;41509;53.108;6.100;2022-12-18T05:08:25;45.92;;;14.48;;
55641;SDS011;41509;53.108;6.100;2022-12-18T05:11:00;40.08;;;13.15;;
55641;SDS011;41509;53.108;6.100;2022-12-18T05:13:28;49.72;;;13.00;;
55641;SDS011;41509;53.108;6.100;2022-12-18T05:15:54;40.65;;;11.93;;
55641;SDS011;41509;53.108;6.100;2022-12-18T05:18:21;39.72;;;12.45;;
55641;SDS011;41509;53.108;6.100;2022-12-18T05:20:48;36.85;;;13.45;;
55641;SDS011;41509;53.108;6.100;2022-12-18T05:23:15;38.88;;;13.13;;
55641;SDS011;41509;53.108;6.100;2022-12-18T05:25:40;31.20;;;11.43;;
55641;SDS011;41509;53.108;6.100;2022-12-18T05:28:06;42.63;;;13.33;;
55641;SDS011;41509;53.108;6.100;2022-12-18T05:30:32;33.57;;;12.13;;
55641;SDS011;41509;53.108;6.100;2022-12-18T05:32:57;47.03;;;13.43;;
55641;SDS011;41509;53.108;6.100;2022-12-18T05:35:23;35.97;;;12.40;;
55641;SDS011;41509;53.108;6.100;2022-12-18T05:37:49;30.57;;;11.13;;
55641;SDS011;41509;53.108;6.100;2022-12-18T05:40:14;32.00;;;12.37;;
55641;SDS011;41509;53.108;6.100;2022-12-18T05:42:40;35.90;;;12.93;;
55641;SDS011;41509;53.108;6.100;2022-12-18T05:45:06;42.50;;;12.90;;
55641;SDS011;41509;53.108;6.100;2022-12-18T05:47:32;32.83;;;12.25;;
55641;SDS011;41509;53.108;6.100;2022-12-18T05:49:57;31.50;;;11.77;;
55641;SDS011;41509;53.108;6.100;2022-12-18T05:52:23;33.70;;;10.73;;
55641;SDS011;41509;53.108;6.100;2022-12-18T05:54:48;32.43;;;12.07;;
55641;SDS011;41509;53.108;6.100;2022-12-18T05:57:14;21.80;;;10.77;;
55641;SDS011;41509;53.108;6.100;2022-12-18T05:59:40;32.70;;;11.07;;
55641;SDS011;41509;53.108;6.100;2022-12-18T06:02:05;36.13;;;10.87;;
55641;SDS011;41509;53.108;6.100;2022-12-18T06:04:31;36.50;;;12.67;;
55641;SDS011;41509;53.108;6.100;2022-12-18T06:06:56;36.10;;;11.13;;
55641;SDS011;41509;53.108;6.100;2022-12-18T06:09:22;35.20;;;11.53;;
55641;SDS011;41509;53.108;6.100;2022-12-18T06:11:48;24.37;;;9.73;;
55641;SDS011;41509;53.108;6.100;2022-12-18T06:14:16;33.08;;;11.23;;
55641;SDS011;41509;53.108;6.100;2022-12-18T06:16:42;33.83;;;10.95;;
55641;SDS011;41509;53.108;6.100;2022-12-18T06:19:12;32.80;;;10.75;;
55641;SDS011;41509;53.108;6.100;2022-12-18T06:21:40;30.85;;;12.32;;
55641;SDS011;41509;53.108;6.100;2022-12-18T06:24:06;28.83;;;11.32;;
55641;SDS011;41509;53.108;6.100;2022-12-18T06:26:32;26.70;;;9.23;;
55641;SDS011;41509;53.108;6.100;2022-12-18T06:28:57;31.47;;;12.63;;
55641;SDS011;41509;53.108;6.100;2022-12-18T06:31:23;26.60;;;9.63;;
55641;SDS011;41509;53.108;6.100;2022-12-18T06:33:49;29.33;;;10.63;;
55641;SDS011;41509;53.108;6.100;2022-12-18T06:36:15;31.47;;;9.90;;
55641;SDS011;41509;53.108;6.100;2022-12-18T06:38:42;30.98;;;11.20;;
55641;SDS011;41509;53.108;6.100;2022-12-18T06:41:09;29.73;;;10.90;;
55641;SDS011;41509;53.108;6.100;2022-12-18T06:43:36;28.02;;;10.57;;
55641;SDS011;41509;53.108;6.100;2022-12-18T06:46:03;30.23;;;10.77;;
55641;SDS011;41509;53.108;6.100;2022-12-18T06:48:29;34.33;;;11.93;;
55641;SDS011;41509;53.108;6.100;2022-12-18T06:50:55;30.33;;;10.27;;
55641;SDS011;41509;53.108;6.100;2022-12-18T06:53:21;27.95;;;10.68;;
55641;SDS011;41509;53.108;6.100;2022-12-18T06:55:47;23.77;;;10.52;;
55641;SDS011;41509;53.108;6.100;2022-12-18T06:58:13;29.77;;;10.77;;
55641;SDS011;41509;53.108;6.100;2022-12-18T07:00:38;33.57;;;10.93;;
55641;SDS011;41509;53.108;6.100;2022-12-18T07:03:04;28.87;;;10.77;;
55641;SDS011;41509;53.108;6.100;2022-12-18T07:05:29;25.63;;;9.10;;
55641;SDS011;41509;53.108;6.100;2022-12-18T07:07:55;22.17;;;8.93;;
55641;SDS011;41509;53.108;6.100;2022-12-18T07:10:21;31.77;;;9.77;;
55641;SDS011;41509;53.108;6.100;2022-12-18T07:12:46;27.07;;;10.57;;
55641;SDS011;41509;53.108;6.100;2022-12-18T07:15:12;25.58;;;9.35;;
55641;SDS011;41509;53.108;6.100;2022-12-18T07:17:38;27.47;;;10.23;;
55641;SDS011;41509;53.108;6.100;2022-12-18T07:20:04;22.57;;;9.97;;
55641;SDS011;41509;53.108;6.100;2022-12-18T07:22:30;27.05;;;9.73;;
55641;SDS011;41509;53.108;6.100;2022-12-18T07:24:55;24.90;;;8.77;;
55641;SDS011;41509;53.108;6.100;2022-12-18T07:27:21;23.87;;;8.77;;
55641;SDS011;41509;53.108;6.100;2022-12-18T07:32:13;25.25;;;9.88;;
55641;SDS011;41509;53.108;6.100;2022-12-18T07:34:39;23.92;;;9.85;;
55641;SDS011;41509;53.108;6.100;2022-12-18T07:37:05;23.30;;;8.50;;
55641;SDS011;41509;53.108;6.100;2022-12-18T07:39:31;27.20;;;9.90;;
55641;SDS011;41509;53.108;6.100;2022-12-18T07:41:56;22.60;;;9.03;;
55641;SDS011;41509;53.108;6.100;2022-12-18T07:44:51;20.92;;;7.50;;
55641;SDS011;41509;53.108;6.100;2022-12-18T07:47:16;25.07;;;9.07;;
55641;SDS011;41509;53.108;6.100;2022-12-18T07:49:42;27.07;;;9.07;;
55641;SDS011;41509;53.108;6.100;2022-12-18T07:52:08;23.27;;;8.93;;
55641;SDS011;41509;53.108;6.100;2022-12-18T07:54:34;23.10;;;8.95;;
55641;SDS011;41509;53.108;6.100;2022-12-18T07:57:00;24.27;;;8.33;;
55641;SDS011;41509;53.108;6.100;2022-12-18T07:59:25;22.90;;;8.67;;
55641;SDS011;41509;53.108;6.100;2022-12-18T08:01:51;23.80;;;9.82;;
55641;SDS011;41509;53.108;6.100;2022-12-18T08:04:17;23.63;;;8.80;;
55641;SDS011;41509;53.108;6.100;2022-12-18T08:06:42;24.40;;;8.43;;
55641;SDS011;41509;53.108;6.100;2022-12-18T08:09:09;22.03;;;7.70;;
55641;SDS011;41509;53.108;6.100;2022-12-18T08:11:35;25.48;;;9.77;;
55641;SDS011;41509;53.108;6.100;2022-12-18T08:14:01;25.00;;;9.70;;
55641;SDS011;41509;53.108;6.100;2022-12-18T08:16:26;19.50;;;7.93;;
55641;SDS011;41509;53.108;6.100;2022-12-18T08:18:53;28.77;;;9.17;;
55641;SDS011;41509;53.108;6.100;2022-12-18T08:21:20;23.40;;;9.10;;
55641;SDS011;41509;53.108;6.100;2022-12-18T08:23:48;24.33;;;9.05;;
55641;SDS011;41509;53.108;6.100;2022-12-18T08:26:17;23.58;;;9.00;;
55641;SDS011;41509;53.108;6.100;2022-12-18T08:28:43;26.45;;;9.35;;
55641;SDS011;41509;53.108;6.100;2022-12-18T08:31:09;27.87;;;10.37;;
55641;SDS011;41509;53.108;6.100;2022-12-18T08:33:35;22.25;;;9.27;;
55641;SDS011;41509;53.108;6.100;2022-12-18T08:36:02;23.83;;;8.48;;
55641;SDS011;41509;53.108;6.100;2022-12-18T08:38:29;22.23;;;9.75;;
55641;SDS011;41509;53.108;6.100;2022-12-18T08:41:05;24.60;;;9.40;;
55641;SDS011;41509;53.108;6.100;2022-12-18T08:43:33;23.65;;;9.95;;
55641;SDS011;41509;53.108;6.100;2022-12-18T08:46:18;20.92;;;8.75;;
55641;SDS011;41509;53.108;6.100;2022-12-18T08:48:45;20.67;;;8.65;;
55641;SDS011;41509;53.108;6.100;2022-12-18T08:51:10;18.30;;;8.45;;
55641;SDS011;41509;53.108;6.100;2022-12-18T08:53:36;19.00;;;7.93;;
55641;SDS011;41509;53.108;6.100;2022-12-18T08:56:02;18.92;;;8.45;;
55641;SDS011;41509;53.108;6.100;2022-12-18T08:58:29;25.30;;;7.70;;
55641;SDS011;41509;53.108;6.100;2022-12-18T09:00:59;18.27;;;7.65;;
55641;SDS011;41509;53.108;6.100;2022-12-18T09:03:26;19.38;;;8.05;;
55641;SDS011;41509;53.108;6.100;2022-12-18T09:05:52;27.13;;;8.87;;
55641;SDS011;41509;53.108;6.100;2022-12-18T09:08:18;24.97;;;7.90;;
55641;SDS011;41509;53.108;6.100;2022-12-18T09:10:44;19.93;;;7.77;;
55641;SDS011;41509;53.108;6.100;2022-12-18T09:13:11;21.58;;;8.32;;
55641;SDS011;41509;53.108;6.100;2022-12-18T09:18:13;17.00;;;7.72;;
55641;SDS011;41509;53.108;6.100;2022-12-18T09:20:39;19.98;;;7.70;;
55641;SDS011;41509;53.108;6.100;2022-12-18T09:23:05;20.67;;;7.33;;
55641;SDS011;41509;53.108;6.100;2022-12-18T09:25:32;17.17;;;7.15;;
55641;SDS011;41509;53.108;6.100;2022-12-18T09:28:00;17.35;;;8.02;;
55641;SDS011;41509;53.108;6.100;2022-12-18T09:30:38;20.65;;;8.77;;
55641;SDS011;41509;53.108;6.100;2022-12-18T09:33:04;23.17;;;7.90;;
55641;SDS011;41509;53.108;6.100;2022-12-18T09:35:30;16.87;;;7.10;;
55641;SDS011;41509;53.108;6.100;2022-12-18T09:37:56;20.30;;;7.83;;
55641;SDS011;41509;53.108;6.100;2022-12-18T09:40:22;19.93;;;7.70;;
55641;SDS011;41509;53.108;6.100;2022-12-18T09:42:52;18.58;;;8.02;;
55641;SDS011;41509;53.108;6.100;2022-12-18T09:45:24;17.85;;;7.97;;
55641;SDS011;41509;53.108;6.100;2022-12-18T09:47:50;18.50;;;8.75;;
55641;SDS011;41509;53.108;6.100;2022-12-18T09:50:24;21.52;;;7.25;;
55641;SDS011;41509;53.108;6.100;2022-12-18T09:52:56;18.75;;;7.75;;
55641;SDS011;41509;53.108;6.100;2022-12-18T09:55:33;19.35;;;8.65;;
55641;SDS011;41509;53.108;6.100;2022-12-18T09:58:05;17.88;;;7.50;;
55641;SDS011;41509;53.108;6.100;2022-12-18T10:00:42;20.23;;;8.45;;
55641;SDS011;41509;53.108;6.100;2022-12-18T10:03:09;20.20;;;7.45;;
55641;SDS011;41509;53.108;6.100;2022-12-18T10:05:41;19.52;;;7.20;;
55641;SDS011;41509;53.108;6.100;2022-12-18T10:08:29;17.55;;;6.80;;
55641;SDS011;41509;53.108;6.100;2022-12-18T10:11:29;14.88;;;7.20;;
55641;SDS011;41509;53.108;6.100;2022-12-18T10:14:28;16.67;;;6.97;;
55641;SDS011;41509;53.108;6.100;2022-12-18T10:17:02;20.20;;;7.10;;
55641;SDS011;41509;53.108;6.100;2022-12-18T10:19:45;18.75;;;6.93;;
55641;SDS011;41509;53.108;6.100;2022-12-18T10:27:29;13.98;;;6.43;;
55641;SDS011;41509;53.108;6.100;2022-12-18T10:29:55;15.02;;;6.85;;
55641;SDS011;41509;53.108;6.100;2022-12-18T10:32:23;14.77;;;6.93;;
55641;SDS011;41509;53.108;6.100;2022-12-18T10:34:54;15.93;;;6.50;;
55641;SDS011;41509;53.108;6.100;2022-12-18T10:37:25;16.58;;;7.10;;
55641;SDS011;41509;53.108;6.100;2022-12-18T10:40:14;16.45;;;7.13;;
55641;SDS011;41509;53.108;6.100;2022-12-18T10:42:40;16.02;;;7.07;;
55641;SDS011;41509;53.108;6.100;2022-12-18T10:45:13;19.40;;;7.95;;
55641;SDS011;41509;53.108;6.100;2022-12-18T10:47:44;15.57;;;6.68;;
55641;SDS011;41509;53.108;6.100;2022-12-18T10:52:57;14.65;;;6.88;;
55641;SDS011;41509;53.108;6.100;2022-12-18T10:55:26;16.75;;;7.55;;
55641;SDS011;41509;53.108;6.100;2022-12-18T10:58:12;15.55;;;7.60;;
55641;SDS011;41509;53.108;6.100;2022-12-18T11:00:41;16.52;;;7.38;;
55641;SDS011;41509;53.108;6.100;2022-12-18T11:03:28;12.77;;;6.20;;
55641;SDS011;41509;53.108;6.100;2022-12-18T11:06:09;17.15;;;6.32;;
55641;SDS011;41509;53.108;6.100;2022-12-18T11:08:43;12.45;;;6.13;;
55641;SDS011;41509;53.108;6.100;2022-12-18T11:11:32;16.40;;;6.70;;
55641;SDS011;41509;53.108;6.100;2022-12-18T11:15:30;13.60;;;6.05;;
55641;SDS011;41509;53.108;6.100;2022-12-18T11:18:14;17.35;;;7.22;;
55641;SDS011;41509;53.108;6.100;2022-12-18T11:20:42;14.60;;;5.88;;
55641;SDS011;41509;53.108;6.100;2022-12-18T11:23:20;11.40;;;5.43;;
55641;SDS011;41509;53.108;6.100;2022-12-18T11:25:50;11.10;;;5.60;;
55641;SDS011;41509;53.108;6.100;2022-12-18T11:28:25;10.70;;;5.43;;
55641;SDS011;41509;53.108;6.100;2022-12-18T11:36:21;10.75;;;4.97;;
55641;SDS011;41509;53.108;6.100;2022-12-18T11:38:47;10.63;;;5.97;;
55641;SDS011;41509;53.108;6.100;2022-12-18T11:41:34;10.30;;;5.43;;
55641;SDS011;41509;53.108;6.100;2022-12-18T11:44:47;9.02;;;4.78;;
55641;SDS011;41509;53.108;6.100;2022-12-18T11:47:31;14.75;;;5.55;;
55641;SDS011;41509;53.108;6.100;2022-12-18T11:50:05;10.43;;;5.30;;
55641;SDS011;41509;53.108;6.100;2022-12-18T11:53:11;14.32;;;6.28;;
55641;SDS011;41509;53.108;6.100;2022-12-18T11:55:41;10.68;;;4.93;;
55641;SDS011;41509;53.108;6.100;2022-12-18T12:12:18;7.22;;;4.32;;
55641;SDS011;41509;53.108;6.100;2022-12-18T12:15:27;9.77;;;4.13;;
55641;SDS011;41509;53.108;6.100;2022-12-18T12:20:53;10.30;;;4.13;;
55641;SDS011;41509;53.108;6.100;2022-12-18T12:26:09;10.00;;;4.80;;
55641;SDS011;41509;53.108;6.100;2022-12-18T12:29:13;8.50;;;3.85;;
55641;SDS011;41509;53.108;6.100;2022-12-18T12:35:00;8.60;;;4.07;;
55641;SDS011;41509;53.108;6.100;2022-12-18T12:40:52;5.97;;;3.22;;
55641;SDS011;41509;53.108;6.100;2022-12-18T12:46:09;8.45;;;3.55;;
55641;SDS011;41509;53.108;6.100;2022-12-18T12:51:12;8.88;;;3.90;;
55641;SDS011;41509;53.108;6.100;2022-12-18T12:53:43;8.30;;;3.35;;
55641;SDS011;41509;53.108;6.100;2022-12-18T12:56:11;7.97;;;3.60;;
55641;SDS011;41509;53.108;6.100;2022-12-18T12:58:52;6.57;;;3.50;;
55641;SDS011;41509;53.108;6.100;2022-12-18T13:07:32;9.32;;;3.35;;
55641;SDS011;41509;53.108;6.100;2022-12-18T13:10:23;7.65;;;3.30;;
55641;SDS011;41509;53.108;6.100;2022-12-18T13:15:36;5.97;;;2.72;;
55641;SDS011;41509;53.108;6.100;2022-12-18T13:20:40;8.50;;;3.40;;
55641;SDS011;41509;53.108;6.100;2022-12-18T13:31:15;7.10;;;3.03;;
55641;SDS011;41509;53.108;6.100;2022-12-18T13:34:16;5.53;;;2.70;;
55641;SDS011;41509;53.108;6.100;2022-12-18T13:36:47;9.60;;;3.53;;
55641;SDS011;41509;53.108;6.100;2022-12-18T13:41:47;5.78;;;2.85;;
55641;SDS011;41509;53.108;6.100;2022-12-18T13:47:07;5.50;;;2.92;;
55641;SDS011;41509;53.108;6.100;2022-12-18T13:50:10;4.80;;;2.70;;
55641;SDS011;41509;53.108;6.100;2022-12-18T13:52:52;7.57;;;3.55;;
55641;SDS011;41509;53.108;6.100;2022-12-18T13:55:18;6.47;;;2.90;;
55641;SDS011;41509;53.108;6.100;2022-12-18T13:57:45;6.88;;;3.05;;
55641;SDS011;41509;53.108;6.100;2022-12-18T14:00:28;7.67;;;3.10;;
55641;SDS011;41509;53.108;6.100;2022-12-18T14:02:55;7.90;;;3.13;;
55641;SDS011;41509;53.108;6.100;2022-12-18T14:06:21;11.07;;;3.63;;
55641;SDS011;41509;53.108;6.100;2022-12-18T14:08:48;9.05;;;3.47;;
55641;SDS011;41509;53.108;6.100;2022-12-18T14:11:19;8.07;;;3.50;;
55641;SDS011;41509;53.108;6.100;2022-12-18T14:13:47;8.30;;;4.03;;
55641;SDS011;41509;53.108;6.100;2022-12-18T14:16:15;7.15;;;3.50;;
55641;SDS011;41509;53.108;6.100;2022-12-18T14:18:44;9.23;;;3.90;;
55641;SDS011;41509;53.108;6.100;2022-12-18T14:21:29;7.38;;;3.28;;
55641;SDS011;41509;53.108;6.100;2022-12-18T14:26:49;5.93;;;3.20;;
55641;SDS011;41509;53.108;6.100;2022-12-18T14:29:23;8.93;;;3.38;;
55641;SDS011;41509;53.108;6.100;2022-12-18T14:32:05;9.45;;;3.13;;
55641;SDS011;41509;53.108;6.100;2022-12-18T14:34:34;7.88;;;3.33;;
55641;SDS011;41509;53.108;6.100;2022-12-18T14:37:00;7.53;;;3.10;;
55641;SDS011;41509;53.108;6.100;2022-12-18T14:39:26;8.30;;;3.77;;
55641;SDS011;41509;53.108;6.100;2022-12-18T14:41:52;9.82;;;3.47;;
55641;SDS011;41509;53.108;6.100;2022-12-18T14:44:18;10.73;;;4.05;;
55641;SDS011;41509;53.108;6.100;2022-12-18T14:46:46;10.48;;;4.78;;
55641;SDS011;41509;53.108;6.100;2022-12-18T14:51:55;8.80;;;4.32;;
55641;SDS011;41509;53.108;6.100;2022-12-18T14:54:26;7.10;;;4.40;;
55641;SDS011;41509;53.108;6.100;2022-12-18T14:57:04;11.50;;;4.43;;
55641;SDS011;41509;53.108;6.100;2022-12-18T14:59:44;12.63;;;4.80;;
55641;SDS011;41509;53.108;6.100;2022-12-18T15:02:23;9.07;;;3.70;;
55641;SDS011;41509;53.108;6.100;2022-12-18T15:05:04;7.95;;;4.07;;
55641;SDS011;41509;53.108;6.100;2022-12-18T15:07:41;7.22;;;3.45;;
55641;SDS011;41509;53.108;6.100;2022-12-18T15:18:01;10.52;;;4.63;;
55641;SDS011;41509;53.108;6.100;2022-12-18T15:20:32;6.47;;;3.75;;
55641;SDS011;41509;53.108;6.100;2022-12-18T15:23:11;8.73;;;4.88;;
55641;SDS011;41509;53.108;6.100;2022-12-18T15:25:49;9.73;;;3.40;;
55641;SDS011;41509;53.108;6.100;2022-12-18T15:28:37;8.27;;;3.55;;
55641;SDS011;41509;53.108;6.100;2022-12-18T15:33:39;10.35;;;3.80;;
55641;SDS011;41509;53.108;6.100;2022-12-18T15:36:15;8.15;;;3.42;;
55641;SDS011;41509;53.108;6.100;2022-12-18T15:38:45;6.40;;;3.80;;
55641;SDS011;41509;53.108;6.100;2022-12-18T15:41:16;6.72;;;3.65;;
55641;SDS011;41509;53.108;6.100;2022-12-18T15:43:44;7.78;;;3.00;;
55641;SDS011;41509;53.108;6.100;2022-12-18T15:48:42;9.15;;;4.10;;
55641;SDS011;41509;53.108;6.100;2022-12-18T15:51:11;8.57;;;3.72;;
55641;SDS011;41509;53.108;6.100;2022-12-18T15:53:59;9.50;;;4.80;;
55641;SDS011;41509;53.108;6.100;2022-12-18T15:56:30;8.93;;;3.55;;
55641;SDS011;41509;53.108;6.100;2022-12-18T15:59:16;8.77;;;4.22;;
55641;SDS011;41509;53.108;6.100;2022-12-18T16:01:44;21.67;;;6.72;;
55641;SDS011;41509;53.108;6.100;2022-12-18T16:04:12;20.48;;;8.48;;
55641;SDS011;41509;53.108;6.100;2022-12-18T16:06:41;19.85;;;7.25;;
55641;SDS011;41509;53.108;6.100;2022-12-18T16:09:10;9.85;;;4.93;;
55641;SDS011;41509;53.108;6.100;2022-12-18T16:11:36;11.57;;;4.93;;
55641;SDS011;41509;53.108;6.100;2022-12-18T16:14:20;9.88;;;4.28;;
55641;SDS011;41509;53.108;6.100;2022-12-18T16:17:03;10.55;;;4.47;;
55641;SDS011;41509;53.108;6.100;2022-12-18T16:19:37;12.88;;;4.68;;
55641;SDS011;41509;53.108;6.100;2022-12-18T16:22:16;12.18;;;5.45;;
55641;SDS011;41509;53.108;6.100;2022-12-18T16:24:51;9.38;;;4.25;;
55641;SDS011;41509;53.108;6.100;2022-12-18T16:27:23;7.63;;;4.55;;
55641;SDS011;41509;53.108;6.100;2022-12-18T16:29:49;9.85;;;3.88;;
55641;SDS011;41509;53.108;6.100;2022-12-18T16:32:17;8.43;;;4.03;;
55641;SDS011;41509;53.108;6.100;2022-12-18T16:34:44;8.88;;;4.35;;
55641;SDS011;41509;53.108;6.100;2022-12-18T16:37:11;10.43;;;4.32;;
55641;SDS011;41509;53.108;6.100;2022-12-18T16:39:38;13.88;;;6.15;;
55641;SDS011;41509;53.108;6.100;2022-12-18T16:44:43;16.73;;;6.88;;
55641;SDS011;41509;53.108;6.100;2022-12-18T16:47:10;12.70;;;6.45;;
55641;SDS011;41509;53.108;6.100;2022-12-18T16:49:38;14.80;;;5.37;;
55641;SDS011;41509;53.108;6.100;2022-12-18T16:52:06;15.63;;;5.65;;
55641;SDS011;41509;53.108;6.100;2022-12-18T16:54:32;11.70;;;5.28;;
55641;SDS011;41509;53.108;6.100;2022-12-18T16:57:00;10.65;;;5.50;;
55641;SDS011;41509;53.108;6.100;2022-12-18T16:59:26;11.57;;;5.15;;
55641;SDS011;41509;53.108;6.100;2022-12-18T17:01:53;11.75;;;5.20;;
55641;SDS011;41509;53.108;6.100;2022-12-18T17:04:19;13.20;;;5.95;;